createdAt,value
2023-01-10T00:01:43.209Z,8.00
2023-01-10T00:04:46.429Z,8.00
2023-01-10T00:07:48.986Z,8.05
2023-01-10T00:10:52.178Z,8.00
2023-01-10T00:13:55.563Z,7.98
2023-01-10T00:16:58.655Z,7.92
2023-01-10T00:20:01.339Z,7.93
2023-01-10T00:23:04.807Z,7.94
2023-01-10T00:26:07.674Z,7.90
2023-01-10T00:29:12.643Z,7.89
2023-01-10T00:32:15.362Z,7.91
2023-01-10T00:35:18.920Z,7.89
2023-01-10T00:38:21.579Z,7.88
2023-01-10T00:41:43.428Z,7.85
2023-01-10T00:44:46.951Z,7.86
2023-01-10T00:47:50.556Z,7.88
2023-01-10T00:50:53.113Z,7.90
2023-01-10T00:53:56.350Z,7.94
2023-01-10T00:56:58.902Z,7.91
2023-01-10T01:00:01.992Z,7.84
2023-01-10T01:03:06.181Z,7.93
2023-01-10T01:06:09.372Z,7.88
2023-01-10T01:09:11.893Z,7.85
2023-01-10T01:12:15.145Z,7.81
2023-01-10T01:15:17.736Z,7.87
2023-01-10T01:18:22.009Z,7.90
2023-01-10T01:21:28.289Z,7.84
2023-01-10T01:24:31.488Z,7.86
2023-01-10T01:27:35.084Z,7.86
2023-01-10T01:30:38.821Z,7.86
2023-01-10T01:33:41.573Z,7.82
2023-01-10T01:36:44.661Z,7.81
2023-01-10T01:39:50.042Z,7.78
2023-01-10T01:42:56.088Z,7.79
2023-01-10T01:46:03.478Z,7.81
2023-01-10T01:49:13.578Z,7.87
2023-01-10T01:52:25.870Z,7.80
2023-01-10T01:55:32.898Z,7.76
2023-01-10T01:58:48.496Z,7.81
2023-01-10T02:01:57.832Z,7.81
2023-01-10T02:05:04.914Z,7.78
2023-01-10T02:08:08.101Z,7.84
2023-01-10T02:11:11.005Z,7.83
2023-01-10T02:14:15.326Z,7.83
2023-01-10T02:17:18.106Z,7.85
2023-01-10T02:20:22.750Z,7.86
2023-01-10T02:23:43.890Z,7.87
2023-01-10T02:26:59.229Z,7.79
2023-01-10T02:30:41.856Z,7.81
2023-01-10T02:33:51.136Z,7.81
2023-01-10T02:37:14.017Z,7.81
2023-01-10T02:40:27.644Z,7.84
2023-01-10T02:43:42.355Z,7.82
2023-01-10T02:46:48.788Z,7.84
2023-01-10T02:49:52.494Z,7.92
2023-01-10T02:52:59.716Z,7.86
2023-01-10T02:56:20.963Z,7.91
2023-01-10T02:59:38.882Z,7.93
2023-01-10T03:03:02.745Z,7.88
2023-01-10T03:06:23.184Z,7.90
2023-01-10T03:09:34.615Z,7.84
2023-01-10T03:13:03.719Z,7.88
2023-01-10T03:16:09.818Z,7.91
2023-01-10T03:19:18.053Z,7.95
2023-01-10T03:22:20.721Z,7.88
2023-01-10T03:25:34.143Z,7.93
2023-01-10T03:28:51.624Z,7.92
2023-01-10T03:32:00.733Z,8.00
2023-01-10T03:35:04.669Z,7.93
2023-01-10T03:38:21.179Z,7.88
2023-01-10T03:41:42.477Z,7.85
2023-01-10T03:45:08.917Z,7.80
2023-01-10T03:48:14.496Z,7.77
2023-01-10T03:51:19.066Z,7.86
2023-01-10T03:54:21.781Z,7.84
2023-01-10T03:57:25.628Z,7.84
2023-01-10T04:00:28.187Z,7.84
2023-01-10T04:03:31.849Z,7.83
2023-01-10T04:06:34.550Z,7.83
2023-01-10T04:09:37.720Z,7.83
2023-01-10T04:12:40.538Z,7.86
2023-01-10T04:15:43.452Z,7.88
2023-01-10T04:18:45.948Z,7.85
2023-01-10T04:21:49.050Z,7.91
2023-01-10T04:24:52.082Z,7.82
2023-01-10T04:27:55.182Z,7.89
2023-01-10T04:30:57.785Z,7.90
2023-01-10T04:34:00.838Z,7.88
2023-01-10T04:37:03.354Z,7.78
2023-01-10T04:40:07.073Z,7.74
2023-01-10T04:43:09.883Z,7.73
2023-01-10T04:46:13.037Z,7.74
2023-01-10T04:49:15.615Z,7.77
2023-01-10T04:52:18.714Z,7.80
2023-01-10T04:55:21.308Z,7.82
2023-01-10T04:58:24.405Z,7.84
2023-01-10T05:01:27.067Z,7.91
2023-01-10T05:04:30.203Z,7.82
2023-01-10T05:07:32.760Z,7.75
2023-01-10T05:10:35.935Z,7.75
2023-01-10T05:13:38.913Z,7.76
2023-01-10T05:16:42.007Z,7.80
2023-01-10T05:19:44.565Z,7.77
2023-01-10T05:22:49.309Z,7.76
2023-01-10T05:25:51.894Z,7.82
2023-01-10T05:28:55.112Z,7.79
2023-01-10T05:31:57.638Z,7.77
2023-01-10T05:35:00.772Z,7.84
2023-01-10T05:38:03.328Z,7.90
2023-01-10T05:41:06.795Z,7.89
2023-01-10T05:44:09.629Z,7.84
2023-01-10T05:47:12.521Z,7.80
2023-01-10T05:50:15.371Z,7.80
2023-01-10T05:53:19.095Z,7.86
2023-01-10T05:56:21.683Z,7.93
2023-01-10T05:59:28.531Z,7.90
2023-01-10T06:02:31.384Z,7.81
2023-01-10T06:05:34.449Z,7.77
2023-01-10T06:08:37.292Z,7.75
2023-01-10T06:11:42.375Z,7.73
2023-01-10T06:14:45.628Z,7.73
2023-01-10T06:17:48.824Z,7.87
2023-01-10T06:20:51.535Z,7.82
2023-01-10T06:23:54.783Z,7.75
2023-01-10T06:26:57.255Z,7.74
2023-01-10T06:30:01.471Z,7.69
2023-01-10T06:33:06.086Z,7.69
2023-01-10T06:36:09.376Z,7.63
2023-01-10T06:39:11.996Z,7.69
2023-01-10T06:42:15.070Z,7.63
2023-01-10T06:45:18.005Z,7.49
2023-01-10T06:48:23.861Z,7.49
2023-01-10T06:51:26.449Z,7.44
2023-01-10T06:54:29.632Z,7.42
2023-01-10T06:57:35.424Z,7.41
2023-01-10T07:00:38.524Z,7.36
2023-01-10T07:03:41.334Z,7.42
2023-01-10T07:06:44.558Z,7.42
2023-01-10T07:09:47.473Z,7.38
2023-01-10T07:12:50.562Z,7.56
2023-01-10T07:15:53.102Z,7.47
2023-01-10T07:18:56.364Z,7.42
2023-01-10T07:21:58.892Z,7.40
2023-01-10T07:25:01.989Z,7.48
2023-01-10T07:28:05.378Z,7.42
2023-01-10T07:31:08.486Z,7.46
2023-01-10T07:34:11.085Z,7.48
2023-01-10T07:37:14.349Z,7.41
2023-01-10T07:40:17.451Z,7.54
2023-01-10T07:43:20.684Z,7.45
2023-01-10T07:46:23.297Z,7.45
2023-01-10T07:49:26.415Z,7.51
2023-01-10T07:52:28.974Z,7.53
2023-01-10T07:55:34.727Z,7.44
2023-01-10T07:58:37.285Z,7.38
2023-01-10T08:01:40.377Z,7.38
2023-01-10T08:04:43.190Z,7.42
2023-01-10T08:07:46.118Z,7.37
2023-01-10T08:10:48.909Z,7.34
2023-01-10T08:13:53.693Z,7.40
2023-01-10T08:16:56.564Z,7.33
2023-01-10T08:19:59.389Z,7.29
2023-01-10T08:23:02.187Z,7.29
2023-01-10T08:26:05.920Z,7.32
2023-01-10T08:29:08.808Z,7.24
2023-01-10T08:32:12.120Z,7.23
2023-01-10T08:35:15.130Z,7.19
2023-01-10T08:38:17.911Z,7.27
2023-01-10T08:41:20.789Z,7.26
2023-01-10T08:44:23.912Z,7.37
2023-01-10T08:47:28.034Z,7.31
2023-01-10T08:50:31.661Z,7.29
2023-01-10T08:53:34.831Z,7.30
2023-01-10T08:56:40.055Z,7.29
2023-01-10T08:59:42.760Z,7.26
2023-01-10T09:02:45.739Z,7.29
2023-01-10T09:05:48.743Z,7.22
2023-01-10T09:08:51.658Z,7.20
2023-01-10T09:11:54.488Z,7.29
2023-01-10T09:14:57.273Z,7.29
2023-01-10T09:18:04.704Z,7.20
2023-01-10T09:21:07.526Z,7.21
2023-01-10T09:24:10.450Z,7.27
2023-01-10T09:27:13.389Z,7.20
2023-01-10T09:30:16.729Z,7.17
2023-01-10T09:33:20.003Z,7.14
2023-01-10T09:36:22.790Z,7.10
2023-01-10T09:39:25.643Z,7.13
2023-01-10T09:43:19.647Z,7.15
2023-01-10T09:46:42.001Z,7.20
2023-01-10T09:50:06.481Z,7.19
2023-01-10T09:53:15.689Z,7.12
2023-01-10T09:56:19.289Z,7.08
2023-01-10T09:59:31.395Z,7.17
2023-01-10T10:02:39.778Z,7.10
2023-01-10T10:05:43.601Z,7.12
2023-01-10T10:08:47.637Z,7.14
2023-01-10T10:12:00.342Z,7.09
2023-01-10T10:15:08.707Z,7.09
2023-01-10T10:18:32.221Z,7.22
2023-01-10T10:21:43.914Z,7.18
2023-01-10T10:25:22.505Z,7.14
2023-01-10T10:28:53.455Z,7.19
2023-01-10T10:32:07.215Z,7.20
2023-01-10T10:35:19.499Z,7.20
2023-01-10T10:38:30.163Z,7.10
2023-01-10T10:41:37.035Z,7.11
2023-01-10T10:45:02.227Z,7.07
2023-01-10T10:48:18.980Z,7.00
2023-01-10T10:51:41.955Z,6.91
2023-01-10T10:54:46.930Z,6.86
2023-01-10T10:57:59.759Z,6.89
2023-01-10T11:01:03.391Z,6.84
2023-01-10T11:04:12.578Z,6.99
2023-01-10T11:07:17.979Z,6.94
2023-01-10T11:10:36.049Z,6.91
2023-01-10T11:14:00.692Z,6.89
2023-01-10T11:17:22.476Z,6.93
2023-01-10T11:20:25.193Z,6.79
2023-01-10T11:23:37.652Z,6.77
2023-01-10T11:26:41.112Z,6.96
2023-01-10T11:29:49.211Z,6.93
2023-01-10T11:32:55.009Z,6.89
2023-01-10T11:36:09.381Z,6.74
2023-01-10T11:39:16.885Z,6.76
2023-01-10T11:42:32.002Z,6.76
2023-01-10T11:45:36.216Z,6.74
2023-01-10T11:49:06.873Z,6.81
2023-01-10T11:52:30.309Z,6.87
2023-01-10T11:55:37.813Z,6.96
2023-01-10T11:58:42.083Z,6.94
2023-01-10T12:01:55.836Z,6.95
2023-01-10T12:05:01.762Z,7.03
2023-01-10T12:08:07.828Z,6.99
2023-01-10T12:11:13.831Z,7.07
2023-01-10T12:14:20.578Z,7.01
2023-01-10T12:17:26.961Z,7.05
2023-01-10T12:20:32.741Z,7.10
2023-01-10T12:23:41.386Z,7.07
2023-01-10T12:26:47.374Z,7.05
2023-01-10T12:30:17.560Z,7.08
2023-01-10T12:33:27.643Z,7.07
2023-01-10T12:36:36.255Z,7.16
2023-01-10T12:39:44.748Z,7.21
2023-01-10T12:43:22.764Z,7.20
2023-01-10T12:47:05.778Z,7.20
2023-01-10T12:50:17.770Z,7.09
2023-01-10T12:53:38.955Z,7.09
2023-01-10T12:56:42.443Z,7.08
2023-01-10T12:59:45.268Z,7.07
2023-01-10T13:02:52.161Z,7.06
2023-01-10T13:05:57.794Z,7.01
2023-01-10T13:09:08.722Z,7.04
2023-01-10T13:12:24.504Z,7.13
2023-01-10T13:15:36.511Z,7.26
2023-01-10T13:19:21.314Z,7.15
2023-01-10T13:22:24.482Z,7.09
2023-01-10T13:25:38.048Z,7.18
2023-01-10T13:28:41.534Z,7.16
2023-01-10T13:31:44.815Z,7.19
2023-01-10T13:34:48.683Z,7.23
2023-01-10T13:37:55.130Z,7.14
2023-01-10T13:41:07.027Z,7.08
2023-01-10T13:44:12.743Z,7.11
2023-01-10T13:47:44.514Z,7.08
2023-01-10T13:50:52.395Z,7.15
2023-01-10T13:54:16.717Z,7.18
2023-01-10T13:57:51.284Z,7.19
2023-01-10T14:01:18.997Z,7.17
2023-01-10T14:04:23.982Z,7.11
2023-01-10T14:07:35.509Z,7.16
2023-01-10T14:10:38.660Z,7.23
2023-01-10T14:13:52.530Z,7.12
2023-01-10T14:17:10.604Z,7.18
2023-01-10T14:20:18.430Z,7.07
2023-01-10T14:23:25.591Z,7.03
2023-01-10T14:26:34.195Z,7.06
2023-01-10T14:29:38.678Z,7.11
2023-01-10T14:32:43.803Z,7.08
2023-01-10T14:35:51.126Z,7.11
2023-01-10T14:38:57.851Z,7.05
2023-01-10T14:42:16.672Z,7.05
2023-01-10T14:45:36.471Z,7.02
2023-01-10T14:48:50.388Z,7.01
2023-01-10T14:52:00.890Z,6.99
2023-01-10T14:55:21.565Z,7.07
2023-01-10T14:58:26.951Z,6.90
2023-01-10T15:01:31.055Z,6.83
2023-01-10T15:04:36.328Z,6.90
2023-01-10T15:07:39.521Z,6.95
2023-01-10T15:10:44.135Z,6.93
2023-01-10T15:13:55.215Z,7.09
2023-01-10T15:17:02.451Z,7.04
2023-01-10T15:20:06.306Z,6.99
2023-01-10T15:23:14.710Z,6.87
2023-01-10T15:26:21.323Z,6.79
2023-01-10T15:29:25.030Z,6.77
2023-01-10T15:32:29.816Z,6.84
2023-01-10T15:35:36.768Z,6.84
2023-01-10T15:38:45.026Z,6.87
2023-01-10T15:41:48.056Z,6.87
2023-01-10T15:44:55.714Z,6.81
2023-01-10T15:48:03.814Z,6.90
2023-01-10T15:51:28.348Z,6.95
2023-01-10T15:54:33.128Z,6.92
2023-01-10T15:57:36.415Z,6.92
2023-01-10T16:00:43.808Z,6.85
2023-01-10T16:03:56.926Z,6.83
2023-01-10T16:07:28.041Z,6.91
2023-01-10T16:10:37.067Z,6.88
2023-01-10T16:13:39.721Z,6.91
2023-01-10T16:16:42.807Z,6.90
2023-01-10T16:19:45.672Z,6.87
2023-01-10T16:22:49.025Z,6.81
2023-01-10T16:26:00.323Z,6.88
2023-01-10T16:29:03.744Z,6.90
2023-01-10T16:32:13.661Z,6.94
2023-01-10T16:35:18.526Z,6.90
2023-01-10T16:38:22.237Z,6.95
2023-01-10T16:41:43.853Z,6.95
2023-01-10T16:44:46.421Z,6.87
2023-01-10T16:47:49.523Z,6.84
2023-01-10T16:50:52.173Z,7.01
2023-01-10T16:53:56.799Z,6.91
2023-01-10T16:56:59.316Z,7.01
2023-01-10T17:00:04.829Z,6.93
2023-01-10T17:03:23.412Z,6.95
2023-01-10T17:06:26.508Z,7.02
2023-01-10T17:09:30.409Z,6.96
2023-01-10T17:12:36.353Z,6.94
2023-01-10T17:15:38.917Z,6.96
2023-01-10T17:18:42.060Z,6.98
2023-01-10T17:21:44.629Z,7.11
2023-01-10T17:24:47.848Z,7.04
2023-01-10T17:27:50.397Z,6.97
2023-01-10T17:30:53.638Z,6.93
2023-01-10T17:33:56.291Z,7.01
2023-01-10T17:36:59.363Z,7.02
2023-01-10T17:40:02.228Z,7.05
2023-01-10T17:43:05.670Z,7.06
2023-01-10T17:46:08.605Z,7.02
2023-01-10T17:49:13.357Z,7.01
2023-01-10T17:52:16.113Z,7.03
2023-01-10T17:55:19.294Z,7.06
2023-01-10T17:58:22.102Z,7.10
2023-01-10T18:01:26.098Z,7.16
2023-01-10T18:04:29.805Z,7.11
2023-01-10T18:07:32.805Z,7.14
2023-01-10T18:10:35.652Z,7.12
2023-01-10T18:13:38.505Z,7.15
2023-01-10T18:16:41.606Z,7.12
2023-01-10T18:19:45.064Z,7.11
2023-01-10T18:23:06.766Z,7.14
2023-01-10T18:26:12.347Z,7.11
2023-01-10T18:29:15.457Z,7.07
2023-01-10T18:32:21.305Z,7.07
2023-01-10T18:35:24.885Z,7.09
2023-01-10T18:38:32.543Z,7.10
2023-01-10T18:41:35.359Z,7.26
2023-01-10T18:44:39.105Z,7.10
2023-01-10T18:47:42.315Z,7.22
2023-01-10T18:50:47.306Z,7.20
2023-01-10T18:53:52.825Z,7.20
2023-01-10T18:56:56.278Z,7.21
2023-01-10T18:59:59.584Z,7.18
2023-01-10T19:03:12.131Z,7.15
2023-01-10T19:06:20.133Z,7.14
2023-01-10T19:09:24.642Z,7.27
2023-01-10T19:12:28.541Z,7.26
2023-01-10T19:15:32.579Z,7.20
2023-01-10T19:18:35.849Z,7.09
2023-01-10T19:21:40.034Z,7.10
2023-01-10T19:24:42.988Z,7.11
2023-01-10T19:27:49.436Z,7.10
2023-01-10T19:31:03.581Z,7.14
2023-01-10T19:34:08.139Z,7.29
2023-01-10T19:37:11.592Z,7.28
2023-01-10T19:40:16.585Z,7.19
2023-01-10T19:43:24.184Z,7.16
2023-01-10T19:46:34.244Z,7.31
2023-01-10T19:49:37.789Z,7.22
2023-01-10T19:52:41.343Z,7.20
2023-01-10T19:55:44.573Z,7.19
2023-01-10T19:58:48.865Z,7.28
2023-01-10T20:01:51.887Z,7.29
2023-01-10T20:04:55.409Z,7.22
2023-01-10T20:07:58.042Z,7.28
2023-01-10T20:11:05.494Z,7.36
2023-01-10T20:14:12.499Z,7.28
2023-01-10T20:17:15.809Z,7.24
2023-01-10T20:20:20.626Z,7.23
2023-01-10T20:23:24.378Z,7.21
2023-01-10T20:26:27.514Z,7.31
2023-01-10T20:29:30.625Z,7.24
2023-01-10T20:32:33.248Z,7.22
2023-01-10T20:35:36.404Z,7.26
2023-01-10T20:38:39.536Z,7.18
2023-01-10T20:41:42.715Z,7.23
2023-01-10T20:44:45.223Z,7.28
2023-01-10T20:47:51.363Z,7.20
2023-01-10T20:50:53.877Z,7.31
2023-01-10T20:53:57.686Z,7.15
2023-01-10T20:57:00.348Z,7.24
2023-01-10T21:00:04.044Z,7.23
2023-01-10T21:03:06.744Z,7.24
2023-01-10T21:06:10.395Z,7.15
2023-01-10T21:09:16.506Z,7.08
2023-01-10T21:12:23.509Z,7.14
2023-01-10T21:15:26.707Z,7.10
2023-01-10T21:18:40.888Z,7.07
2023-01-10T21:21:44.272Z,7.12
2023-01-10T21:24:48.534Z,7.05
2023-01-10T21:27:51.138Z,7.08
2023-01-10T21:30:54.347Z,7.02
2023-01-10T21:33:56.912Z,6.99
2023-01-10T21:37:00.125Z,6.98
2023-01-10T21:40:04.518Z,7.00
2023-01-10T21:43:08.525Z,7.04
2023-01-10T21:46:11.928Z,7.01
2023-01-10T21:49:15.236Z,7.02
2023-01-10T21:52:18.432Z,6.96
2023-01-10T21:55:21.775Z,7.03
2023-01-10T21:58:24.322Z,7.12
2023-01-10T22:01:27.645Z,6.95
2023-01-10T22:04:30.609Z,6.87
2023-01-10T22:07:33.446Z,6.75
2023-01-10T22:10:36.259Z,6.76
2023-01-10T22:13:39.435Z,6.78
2023-01-10T22:16:42.406Z,6.71
2023-01-10T22:19:45.286Z,6.71
2023-01-10T22:22:48.209Z,6.68
2023-01-10T22:26:05.102Z,6.59
2023-01-10T22:29:07.935Z,6.55
2023-01-10T22:32:10.790Z,6.58
2023-01-10T22:35:14.714Z,6.55
2023-01-10T22:38:17.654Z,6.47
2023-01-10T22:41:26.854Z,6.51
2023-01-10T22:44:29.810Z,6.41
2023-01-10T22:47:33.753Z,6.42
2023-01-10T22:50:39.699Z,6.39
2023-01-10T22:53:43.131Z,6.32
2023-01-10T22:56:46.587Z,6.33
2023-01-10T22:59:49.313Z,6.24
2023-01-10T23:02:52.139Z,6.20
2023-01-10T23:05:58.879Z,6.11
2023-01-10T23:09:01.837Z,6.11
2023-01-10T23:12:05.018Z,6.16
2023-01-10T23:15:08.538Z,6.08
2023-01-10T23:18:11.433Z,6.08
2023-01-10T23:21:14.447Z,6.06
2023-01-10T23:24:17.337Z,5.97
2023-01-10T23:27:20.114Z,5.97
2023-01-10T23:30:26.638Z,6.10
2023-01-10T23:33:30.278Z,6.03
2023-01-10T23:36:33.139Z,6.07
2023-01-10T23:39:35.980Z,5.94
2023-01-10T23:42:38.786Z,5.94
2023-01-10T23:45:45.432Z,5.85
2023-01-10T23:48:48.480Z,5.91
2023-01-10T23:51:51.374Z,5.82
2023-01-10T23:54:54.157Z,5.85
2023-01-10T23:57:57.164Z,5.84
